createdAt,value
2018-12-05T01:20:38.058Z,16.25
2018-12-05T01:37:36.483Z,19.25
2018-12-05T01:57:10.523Z,18.02
2018-12-05T02:07:18.388Z,16.15
2018-12-05T02:09:48.507Z,19.93
2018-12-05T02:12:19.499Z,13.43
2018-12-05T02:14:50.811Z,15.50
2018-12-05T02:31:02.697Z,29.30
2018-12-05T03:09:47.764Z,10.23
2018-12-05T03:34:04.957Z,14.93
2018-12-05T03:36:35.069Z,19.93
2018-12-05T03:42:30.457Z,17.10
2018-12-05T03:48:40.640Z,15.07
2018-12-05T03:58:21.510Z,15.87
2018-12-05T04:38:32.925Z,11.20
2018-12-05T04:57:10.180Z,12.60
2018-12-05T05:49:57.020Z,12.15
2018-12-05T06:06:40.422Z,16.48
2018-12-05T06:24:05.441Z,17.82
2018-12-05T06:40:22.883Z,20.70
2018-12-05T07:41:51.291Z,23.27
2018-12-05T07:47:24.373Z,29.55
2018-12-05T07:49:56.398Z,17.47
2018-12-05T07:52:27.231Z,20.00
2018-12-05T07:54:56.957Z,25.03
2018-12-05T07:57:26.804Z,23.80
2018-12-05T08:28:36.856Z,25.57
2018-12-05T08:34:17.229Z,28.70
2018-12-05T08:36:46.897Z,34.03
2018-12-05T08:39:17.063Z,23.73
2018-12-05T08:51:42.729Z,25.80
2018-12-05T08:54:12.115Z,31.00
2018-12-05T08:56:41.723Z,37.50
2018-12-05T08:59:10.757Z,30.93
2018-12-05T09:01:40.839Z,29.10
2018-12-05T09:04:10.397Z,37.40
2018-12-05T09:06:39.600Z,35.43
2018-12-05T09:09:09.377Z,33.47
2018-12-05T09:11:38.684Z,37.67
2018-12-05T09:14:09.637Z,36.53
2018-12-05T09:16:38.843Z,35.00
2018-12-05T09:19:08.044Z,40.93
2018-12-05T09:21:39.121Z,45.93
2018-12-05T09:24:09.079Z,31.43
2018-12-05T09:26:39.342Z,25.53
2018-12-05T09:29:08.729Z,40.43
2018-12-05T09:31:38.607Z,31.17
2018-12-05T09:34:08.612Z,38.67
2018-12-05T09:36:39.698Z,42.07
2018-12-05T09:52:09.563Z,37.75
2018-12-05T09:57:47.313Z,34.95
2018-12-05T10:00:17.034Z,31.57
2018-12-05T10:03:11.163Z,33.27
2018-12-05T10:05:51.145Z,31.67
2018-12-05T10:27:10.483Z,37.10
2018-12-05T10:29:39.986Z,34.37
2018-12-05T10:32:09.064Z,44.73
2018-12-05T10:34:38.836Z,31.17
2018-12-05T10:37:12.142Z,28.57
2018-12-05T10:39:41.264Z,32.73
2018-12-05T10:42:10.983Z,39.63
2018-12-05T10:44:40.163Z,26.67
2018-12-05T10:47:09.324Z,27.57
2018-12-05T10:49:38.768Z,27.87
2018-12-05T10:52:08.723Z,27.23
2018-12-05T10:54:39.249Z,32.67
2018-12-05T10:59:53.334Z,36.57
2018-12-05T11:02:30.001Z,32.67
2018-12-05T11:05:04.719Z,35.00
2018-12-05T11:07:40.336Z,32.57
2018-12-05T11:10:15.150Z,23.93
2018-12-05T11:26:41.207Z,23.20
2018-12-05T11:29:12.646Z,24.30
2018-12-05T11:31:43.240Z,24.33
2018-12-05T11:53:14.513Z,27.80
2018-12-05T11:55:46.791Z,32.93
2018-12-05T11:58:16.099Z,31.23
2018-12-05T12:00:45.225Z,27.00
2018-12-05T12:03:33.280Z,23.23
2018-12-05T12:19:45.955Z,21.85
2018-12-05T12:24:54.882Z,28.85
2018-12-05T12:27:32.723Z,23.97
2018-12-05T12:30:02.418Z,30.20
2018-12-05T12:39:00.006Z,21.10
2018-12-05T12:41:29.806Z,20.63
2018-12-05T12:43:58.918Z,29.97
2018-12-05T12:46:28.687Z,31.67
2018-12-05T12:48:58.916Z,24.27
2018-12-05T12:52:07.260Z,32.70
2018-12-05T12:54:36.778Z,22.17
2018-12-05T12:57:06.774Z,24.43
2018-12-05T13:00:09.035Z,30.73
2018-12-05T13:18:44.553Z,21.50
2018-12-05T13:27:07.681Z,27.23
2018-12-05T13:29:37.556Z,19.43
2018-12-05T13:32:25.415Z,27.23
2018-12-05T13:34:54.730Z,24.50
2018-12-05T13:38:47.882Z,29.93
2018-12-05T13:41:17.287Z,24.33
2018-12-05T13:47:47.347Z,22.93
2018-12-05T13:50:17.180Z,24.00
2018-12-05T13:52:50.427Z,17.47
2018-12-05T13:56:15.391Z,15.00
2018-12-05T13:58:56.840Z,34.90
2018-12-05T14:05:41.191Z,24.20
2018-12-05T14:08:27.397Z,22.83
2018-12-05T14:10:59.426Z,19.43
2018-12-05T14:13:33.479Z,22.47
2018-12-05T14:16:36.934Z,31.17
2018-12-05T14:24:08.239Z,26.23
2018-12-05T14:26:38.274Z,22.57
2018-12-05T14:29:10.403Z,24.17
2018-12-05T14:31:40.145Z,33.07
2018-12-05T14:34:09.344Z,26.50
2018-12-05T14:42:54.758Z,23.23
2018-12-05T14:45:24.556Z,20.90
2018-12-05T14:48:01.679Z,31.20
2018-12-05T15:05:19.117Z,32.40
2018-12-05T16:07:35.571Z,21.70
2018-12-05T16:13:16.931Z,16.13
2018-12-05T16:19:23.935Z,21.70
2018-12-05T17:00:55.448Z,18.30
2018-12-05T17:06:30.476Z,15.70
2018-12-05T17:09:05.927Z,15.97
2018-12-05T17:11:37.782Z,10.23
2018-12-05T17:14:20.793Z,17.50
2018-12-05T17:46:25.769Z,12.15
2018-12-05T18:00:52.999Z,13.50
2018-12-05T18:03:22.542Z,12.23
2018-12-05T18:05:57.553Z,11.33
2018-12-05T18:08:31.193Z,12.90
2018-12-05T18:11:00.880Z,13.93
2018-12-05T18:13:30.111Z,14.73
2018-12-05T18:15:59.497Z,16.10
2018-12-05T18:18:28.744Z,9.23
2018-12-05T18:20:57.818Z,9.13
2018-12-05T18:23:28.754Z,13.77
2018-12-05T18:25:58.132Z,14.50
2018-12-05T18:31:04.157Z,9.07
2018-12-05T18:34:36.999Z,13.63
2018-12-05T18:37:48.443Z,12.17
2018-12-05T18:40:23.543Z,16.47
2018-12-05T18:42:52.993Z,9.07
2018-12-05T18:45:31.289Z,19.83
2018-12-05T18:48:08.582Z,9.20
2018-12-05T18:51:19.526Z,20.07
2018-12-05T18:53:49.357Z,12.67
2018-12-05T18:59:10.606Z,18.00
2018-12-05T19:01:56.385Z,10.93
2018-12-05T19:04:41.395Z,9.00
2018-12-05T19:07:37.425Z,17.00
2018-12-05T19:10:12.871Z,15.67
2018-12-05T19:12:44.383Z,10.40
2018-12-05T19:15:39.194Z,12.90
2018-12-05T19:18:23.679Z,7.20
2018-12-05T19:21:05.746Z,24.80
2018-12-05T19:23:45.026Z,15.17
2018-12-05T19:54:10.991Z,12.00
2018-12-05T19:59:25.807Z,7.37
2018-12-05T20:02:16.971Z,11.47
2018-12-05T20:05:34.856Z,6.03
2018-12-05T20:11:03.826Z,7.90
2018-12-05T20:13:37.304Z,10.30
2018-12-05T20:16:07.943Z,9.47
2018-12-05T20:18:37.605Z,7.80
2018-12-05T20:21:14.789Z,14.30
2018-12-05T20:23:45.506Z,14.27
2018-12-05T20:26:25.229Z,16.37
2018-12-05T20:28:59.402Z,9.83
2018-12-05T20:31:30.999Z,12.50
2018-12-05T20:34:33.841Z,20.10
2018-12-05T20:37:04.745Z,13.50
2018-12-05T20:39:35.410Z,9.60
2018-12-05T20:42:16.250Z,8.50
2018-12-05T20:44:52.006Z,9.60
2018-12-05T20:47:25.899Z,15.17
2018-12-05T20:50:19.547Z,10.97
2018-12-05T20:52:59.440Z,11.27
2018-12-05T20:58:58.090Z,16.97
2018-12-05T21:04:44.971Z,11.27
2018-12-05T21:08:41.610Z,12.43
2018-12-05T21:11:12.870Z,16.20
2018-12-05T21:14:00.322Z,10.43
2018-12-05T21:20:07.747Z,13.53
2018-12-05T21:38:43.440Z,12.78
2018-12-05T21:44:21.050Z,6.90
2018-12-05T22:47:50.697Z,11.20
2018-12-05T22:53:05.642Z,14.38
2018-12-05T22:55:58.504Z,17.40
2018-12-05T22:58:36.657Z,15.13
2018-12-05T23:01:23.255Z,13.00
2018-12-05T23:03:55.529Z,11.30
2018-12-05T23:06:25.981Z,8.70
2018-12-05T23:08:55.919Z,15.03
2018-12-05T23:11:25.535Z,19.13
2018-12-05T23:13:55.779Z,15.07
2018-12-05T23:16:25.563Z,15.07
2018-12-05T23:18:54.942Z,16.00
2018-12-05T23:27:17.554Z,12.73
2018-12-05T23:32:48.299Z,14.23
2018-12-05T23:35:18.179Z,13.67
2018-12-05T23:37:54.597Z,13.93
2018-12-05T23:40:55.295Z,13.37
2018-12-05T23:43:36.109Z,16.57
2018-12-05T23:46:05.633Z,14.80
2018-12-05T23:48:48.724Z,13.10
2018-12-05T23:54:22.830Z,14.97
2018-12-05T23:56:52.976Z,17.50
